• Join FlightAware (Why Join?)
  • Login
  • US Flag 
02:29AM EDT


 

Airport Tracker/Info


-or-


 

Live Flight TrackerFlight Track Log ✈ GLR763 ✈ 01-May-2013 ✈ CYEG - CYOP

Flight Track Log - Related Links

Times and Time Zones

All times are in EDT time to prevent confusion due to time zone crossing. See the GLR763 flight status page for this flight to view local times or setup timezone preferences in your user account.

Time Position Orientation Groundspeed Altitude Reporting Facility
EDT Latitude Longitude Course Direction KTS MPH feet Rate Location/Type
12:58PM 53.2333 -113.5333 130° Southeast 150 173 4,700  Level Edmonton Center
12:59PM 53.2167 -113.4833 119° Southeast 190 219 6,000 1,500 Climbing Edmonton Center
01:00PM 53.2500 -113.4333 42° Northeast 170 196 7,800 1,740 Climbing Edmonton Center
01:01PM 53.3000 -113.4500 349° North 170 196 9,500 1,740 Climbing Edmonton Center
01:02PM 53.3500 -113.4833 338° Northwest 170 196 11,300 1,680 Climbing Edmonton Center
01:03PM 53.3833 -113.5167 329° Northwest 170 196 12,900 1,500 Climbing Edmonton Center
01:04PM 53.4333 -113.5833 322° Northwest 180 207 14,300 1,380 Climbing Edmonton Center
01:05PM 53.4833 -113.6167 338° Northwest 180 207 15,700 840 Climbing Edmonton Center
01:06PM 53.5333 -113.6667 329° Northwest 210 242 16,000 180 Climbing Edmonton Center
01:07PM 53.6000 -113.7333 329° Northwest 240 276 16,100  Climbing Edmonton Center
01:08PM 53.6333 -113.7667 329° Northwest 250 288 16,100  Level Edmonton Center
01:09PM 53.7000 -113.8500 324° Northwest 250 288 16,100  Level Edmonton Center
01:10PM 53.7667 -113.9167 329° Northwest 250 288 16,100  Level Edmonton Center
01:11PM 53.8333 -113.9500 344° North 250 288 16,100  Level Edmonton Center
01:12PM 53.9000 -114.0333 324° Northwest 250 288 16,100  Level Edmonton Center
01:13PM 53.9333 -114.1000 310° West 250 288 16,100  Level Edmonton Center
01:14PM 54.0000 -114.1333 344° North 250 288 16,100  Level Edmonton Center
01:15PM 54.0667 -114.2167 324° Northwest 250 288 16,100  Level Edmonton Center
01:16PM 54.1333 -114.2833 330° Northwest 250 288 16,100 -60 Level Edmonton Center
01:17PM 54.1833 -114.3333 330° Northwest 250 288 16,000 -60 Descending Edmonton Center
01:18PM 54.2333 -114.4000 322° Northwest 250 288 16,000  Level Edmonton Center
01:19PM 54.3000 -114.4667 330° Northwest 240 276 16,000  Level Edmonton Center
01:20PM 54.3667 -114.5167 336° Northwest 240 276 16,000  Level Edmonton Center
01:21PM 54.4167 -114.5833 322° Northwest 240 276 16,000  Level Edmonton Center
01:22PM 54.4667 -114.6333 330° Northwest 240 276 16,000  Level Edmonton Center
01:23PM 54.5333 -114.7000 330° Northwest 240 276 16,100  Climbing Edmonton Center
01:24PM 54.5833 -114.7833 316° Northwest 240 276 16,100 -60 Level Edmonton Center
01:25PM 54.6500 -114.8167 344° North 240 276 16,000 -60 Descending Edmonton Center
01:26PM 54.7000 -114.9000 316° Northwest 240 276 16,000  Level Edmonton Center
01:27PM 54.7500 -114.9333 339° North 240 276 16,000  Level Edmonton Center
01:28PM 54.8167 -115.0167 324° Northwest 240 276 16,000  Level Edmonton Center
01:29PM 54.8667 -115.0500 339° North 240 276 16,000  Level Edmonton Center
01:30PM 54.9333 -115.1333 324° Northwest 240 276 16,000  Level Edmonton Center
01:31PM 55.0000 -115.1833 337° Northwest 240 276 16,000  Level Edmonton Center
01:32PM 55.0333 -115.2500 311° West 240 276 16,000  Level Edmonton Center
01:33PM 55.1000 -115.3333 324° Northwest 240 276 16,000  Level Edmonton Center
01:34PM 55.1667 -115.3667 344° North 240 276 16,000  Level Edmonton Center
01:35PM 55.2000 -115.4500 305° West 240 276 16,000  Level Edmonton Center
01:36PM 55.2667 -115.5167 330° Northwest 240 276 16,000  Level Edmonton Center
01:37PM 55.3333 -115.5667 337° Northwest 240 276 16,000  Level Edmonton Center
01:38PM 55.3833 -115.6500 317° Northwest 230 265 16,000  Level Edmonton Center
01:39PM 55.4500 -115.6833 344° North 240 276 16,000  Level Edmonton Center
01:40PM 55.5000 -115.7667 317° Northwest 250 288 16,000  Level Edmonton Center
01:41PM 55.5500 -115.8500 317° Northwest 230 265 16,000  Level Edmonton Center
01:42PM 55.6167 -115.8833 344° North 240 276 16,000  Level Edmonton Center
01:43PM 55.6667 -115.9667 317° Northwest 240 276 16,000  Level Edmonton Center
01:44PM 55.7167 -116.0167 331° Northwest 240 276 16,000  Level Edmonton Center
01:45PM 55.7833 -116.1000 325° Northwest 240 276 16,000  Level Edmonton Center
01:46PM 55.8333 -116.1333 339° North 240 276 16,000  Level Edmonton Center
01:47PM 55.8833 -116.2167 317° Northwest 240 276 16,000  Level Edmonton Center
01:48PM 55.9500 -116.3000 325° Northwest 230 265 16,000  Level Edmonton Center
01:49PM 56.0000 -116.3333 340° North 240 276 16,000  Level Edmonton Center
01:50PM 56.0667 -116.4167 325° Northwest 240 276 16,000  Level Edmonton Center
01:51PM 56.1167 -116.4667 331° Northwest 240 276 16,000  Level Edmonton Center
01:52PM 56.1667 -116.5500 317° Northwest 240 276 16,000  Level Edmonton Center
01:53PM 56.2333 -116.6333 325° Northwest 240 276 16,000  Level Edmonton Center
01:54PM 56.3000 -116.6833 337° Northwest 240 276 16,000  Level Edmonton Center
01:55PM 56.3333 -116.7500 312° West 240 276 16,000  Level Edmonton Center
01:56PM 56.4000 -116.8000 337° Northwest 240 276 16,000  Level Edmonton Center
01:57PM 56.4667 -116.8833 325° Northwest 240 276 16,000  Level Edmonton Center
01:58PM 56.5000 -116.9333 320° Northwest 240 276 16,000  Level Edmonton Center
01:59PM 56.5667 -117.0167 325° Northwest 240 276 16,000  Level Edmonton Center
02:00PM 56.6333 -117.1000 326° Northwest 250 288 16,000  Level Edmonton Center
02:01PM 56.7000 -117.1500 338° Northwest 250 288 16,000 -60 Level Edmonton Center
02:02PM 56.7333 -117.2333 306° West 250 288 15,900  Descending Edmonton Center
02:03PM 56.8000 -117.3167 326° Northwest 240 276 16,000  Climbing Edmonton Center
02:04PM 56.8667 -117.3667 338° Northwest 250 288 16,000  Level Edmonton Center
02:05PM 56.9167 -117.4500 318° Northwest 250 288 16,000  Level Edmonton Center
02:06PM 56.9667 -117.5000 331° Northwest 240 276 16,000  Level Edmonton Center
02:07PM 57.0333 -117.5833 326° Northwest 250 288 16,000 -60 Level Edmonton Center
02:08PM 57.0833 -117.6667 318° Northwest 240 276 15,900  Descending Edmonton Center
02:09PM 57.1500 -117.7167 338° Northwest 240 276 16,000  Climbing Edmonton Center
02:10PM 57.2167 -117.8000 326° Northwest 250 288 16,000  Level Edmonton Center
02:11PM 57.2500 -117.8833 307° West 240 276 16,000  Level Edmonton Center
02:12PM 57.3167 -117.9333 338° Northwest 250 288 16,000  Level Edmonton Center
02:13PM 57.3833 -118.0167 326° Northwest 250 288 16,000  Level Edmonton Center
02:14PM 57.4333 -118.0833 324° Northwest 240 276 16,000  Level Edmonton Center
02:15PM 57.4833 -118.1500 324° Northwest 250 288 16,000  Level Edmonton Center
02:16PM 57.5500 -118.2500 321° Northwest 240 276 16,000  Level Edmonton Center
02:17PM 57.6000 -118.3000 332° Northwest 250 288 16,000  Level Edmonton Center
02:18PM 57.6500 -118.3833 318° Northwest 240 276 16,000  Level Edmonton Center
02:20PM 57.7451 -118.4501 339° North  Level FlightAware Approximate
02:27PM 58.1386 -118.8437 324° Northwest  Level FlightAware Approximate
02:28PM 58.1892 -118.9145 324° Northwest  Level FlightAware Approximate
02:29PM 58.2397 -118.9855 324° Northwest  Level FlightAware Approximate